sensor_id;sensor_type;location;lat;lon;timestamp;temperature;humidity
28023;DHT22;67403;50.104;8.758;2023-03-01T00:00:04;-0.80;99.90
28023;DHT22;67403;50.104;8.758;2023-03-01T00:02:34;-0.80;99.90
28023;DHT22;67403;50.104;8.758;2023-03-01T00:05:01;-0.80;99.90
28023;DHT22;67403;50.104;8.758;2023-03-01T00:07:28;-0.80;99.90
28023;DHT22;67403;50.104;8.758;2023-03-01T00:09:55;-0.90;99.90
28023;DHT22;67403;50.104;8.758;2023-03-01T00:12:21;-0.90;99.90
28023;DHT22;67403;50.104;8.758;2023-03-01T00:14:48;-1.00;99.90
28023;DHT22;67403;50.104;8.758;2023-03-01T00:17:15;-1.00;99.90
28023;DHT22;67403;50.104;8.758;2023-03-01T00:19:44;-1.00;99.90
28023;DHT22;67403;50.104;8.758;2023-03-01T00:22:10;-0.90;99.90
28023;DHT22;67403;50.104;8.758;2023-03-01T00:24:37;-0.80;99.90
28023;DHT22;67403;50.104;8.758;2023-03-01T00:27:04;-0.80;99.90
28023;DHT22;67403;50.104;8.758;2023-03-01T00:29:31;-0.90;99.90
28023;DHT22;67403;50.104;8.758;2023-03-01T00:31:58;-0.90;99.90
28023;DHT22;67403;50.104;8.758;2023-03-01T00:34:26;-1.00;99.90
28023;DHT22;67403;50.104;8.758;2023-03-01T00:36:54;-1.00;99.90
28023;DHT22;67403;50.104;8.758;2023-03-01T00:39:21;-1.00;99.90
28023;DHT22;67403;50.104;8.758;2023-03-01T00:41:47;-1.00;99.90
28023;DHT22;67403;50.104;8.758;2023-03-01T00:44:15;-0.90;99.90
28023;DHT22;67403;50.104;8.758;2023-03-01T00:46:42;-0.90;99.90
28023;DHT22;67403;50.104;8.758;2023-03-01T00:49:09;-0.80;99.90
28023;DHT22;67403;50.104;8.758;2023-03-01T00:51:35;-0.80;99.90
28023;DHT22;67403;50.104;8.758;2023-03-01T00:54:04;-0.80;99.90
28023;DHT22;67403;50.104;8.758;2023-03-01T00:56:31;-0.90;99.90
28023;DHT22;67403;50.104;8.758;2023-03-01T00:58:58;-0.90;99.90
28023;DHT22;67403;50.104;8.758;2023-03-01T01:01:28;-0.90;99.90
28023;DHT22;67403;50.104;8.758;2023-03-01T01:03:57;-0.90;99.90
28023;DHT22;67403;50.104;8.758;2023-03-01T01:06:25;-0.90;99.90
28023;DHT22;67403;50.104;8.758;2023-03-01T01:08:53;-0.90;99.90
28023;DHT22;67403;50.104;8.758;2023-03-01T01:11:23;-0.90;99.90
28023;DHT22;67403;50.104;8.758;2023-03-01T01:13:51;-1.00;99.90
28023;DHT22;67403;50.104;8.758;2023-03-01T01:16:19;-1.00;99.90
28023;DHT22;67403;50.104;8.758;2023-03-01T01:18:47;-1.00;99.90
28023;DHT22;67403;50.104;8.758;2023-03-01T01:21:15;-1.00;99.90
28023;DHT22;67403;50.104;8.758;2023-03-01T01:23:44;-0.90;99.90
28023;DHT22;67403;50.104;8.758;2023-03-01T01:26:13;-0.90;99.90
28023;DHT22;67403;50.104;8.758;2023-03-01T01:28:42;-0.90;99.90
28023;DHT22;67403;50.104;8.758;2023-03-01T01:31:09;-0.90;99.90
28023;DHT22;67403;50.104;8.758;2023-03-01T01:33:37;-0.90;99.90
28023;DHT22;67403;50.104;8.758;2023-03-01T01:36:05;-0.90;99.90
28023;DHT22;67403;50.104;8.758;2023-03-01T01:38:32;-0.90;99.90
28023;DHT22;67403;50.104;8.758;2023-03-01T01:40:59;-0.90;99.90
28023;DHT22;67403;50.104;8.758;2023-03-01T01:43:28;-0.90;99.90
28023;DHT22;67403;50.104;8.758;2023-03-01T01:45:59;-0.90;99.90
28023;DHT22;67403;50.104;8.758;2023-03-01T01:48:32;-0.90;99.90
28023;DHT22;67403;50.104;8.758;2023-03-01T01:51:08;-0.90;99.90
28023;DHT22;67403;50.104;8.758;2023-03-01T01:53:37;-0.80;99.90
28023;DHT22;67403;50.104;8.758;2023-03-01T01:56:07;-0.70;99.90
28023;DHT22;67403;50.104;8.758;2023-03-01T01:58:36;-0.70;99.90
28023;DHT22;67403;50.104;8.758;2023-03-01T02:01:05;-0.70;99.90
28023;DHT22;67403;50.104;8.758;2023-03-01T02:03:34;-0.80;99.90
28023;DHT22;67403;50.104;8.758;2023-03-01T02:06:12;-0.70;99.90
28023;DHT22;67403;50.104;8.758;2023-03-01T02:08:42;-0.70;99.90
28023;DHT22;67403;50.104;8.758;2023-03-01T02:11:10;-0.70;99.90
28023;DHT22;67403;50.104;8.758;2023-03-01T02:13:40;-0.80;99.90
28023;DHT22;67403;50.104;8.758;2023-03-01T02:16:11;-0.80;99.90
28023;DHT22;67403;50.104;8.758;2023-03-01T02:18:38;-0.80;99.90
28023;DHT22;67403;50.104;8.758;2023-03-01T02:21:19;-0.80;99.90
28023;DHT22;67403;50.104;8.758;2023-03-01T02:23:49;-0.80;99.90
28023;DHT22;67403;50.104;8.758;2023-03-01T02:26:21;-0.80;99.90
28023;DHT22;67403;50.104;8.758;2023-03-01T02:28:51;-0.80;99.90
28023;DHT22;67403;50.104;8.758;2023-03-01T02:31:20;-0.70;99.90
28023;DHT22;67403;50.104;8.758;2023-03-01T02:34:05;-0.80;99.90
28023;DHT22;67403;50.104;8.758;2023-03-01T02:36:36;-0.70;99.90
28023;DHT22;67403;50.104;8.758;2023-03-01T02:39:05;-0.70;99.90
28023;DHT22;67403;50.104;8.758;2023-03-01T02:41:35;-0.70;99.90
28023;DHT22;67403;50.104;8.758;2023-03-01T02:44:05;-0.70;99.90
28023;DHT22;67403;50.104;8.758;2023-03-01T02:46:32;-0.70;99.90
28023;DHT22;67403;50.104;8.758;2023-03-01T02:48:59;-0.70;99.90
28023;DHT22;67403;50.104;8.758;2023-03-01T02:51:34;-0.70;99.90
28023;DHT22;67403;50.104;8.758;2023-03-01T02:54:12;-0.70;99.90
28023;DHT22;67403;50.104;8.758;2023-03-01T02:56:43;-0.70;99.90
28023;DHT22;67403;50.104;8.758;2023-03-01T03:01:43;-0.70;99.90
28023;DHT22;67403;50.104;8.758;2023-03-01T03:04:14;-0.70;99.90
28023;DHT22;67403;50.104;8.758;2023-03-01T03:06:42;-0.70;99.90
28023;DHT22;67403;50.104;8.758;2023-03-01T03:09:10;-0.70;99.90
28023;DHT22;67403;50.104;8.758;2023-03-01T03:11:37;-0.80;99.90
28023;DHT22;67403;50.104;8.758;2023-03-01T03:14:05;-0.80;99.90
28023;DHT22;67403;50.104;8.758;2023-03-01T03:16:41;-0.80;99.90
28023;DHT22;67403;50.104;8.758;2023-03-01T03:19:09;-0.80;99.90
28023;DHT22;67403;50.104;8.758;2023-03-01T03:21:36;-0.80;99.90
28023;DHT22;67403;50.104;8.758;2023-03-01T03:24:04;-0.80;99.90
28023;DHT22;67403;50.104;8.758;2023-03-01T03:26:31;-0.80;99.90
28023;DHT22;67403;50.104;8.758;2023-03-01T03:28:58;-0.90;99.90
28023;DHT22;67403;50.104;8.758;2023-03-01T03:31:25;-0.80;99.90
28023;DHT22;67403;50.104;8.758;2023-03-01T03:33:53;-0.80;99.90
28023;DHT22;67403;50.104;8.758;2023-03-01T03:36:23;-0.90;99.90
28023;DHT22;67403;50.104;8.758;2023-03-01T03:38:50;-0.80;99.90
28023;DHT22;67403;50.104;8.758;2023-03-01T03:41:17;-0.90;99.90
28023;DHT22;67403;50.104;8.758;2023-03-01T03:43:44;-0.90;99.90
28023;DHT22;67403;50.104;8.758;2023-03-01T03:46:11;-0.90;99.90
28023;DHT22;67403;50.104;8.758;2023-03-01T03:48:40;-0.90;99.90
28023;DHT22;67403;50.104;8.758;2023-03-01T03:51:10;-0.90;99.90
28023;DHT22;67403;50.104;8.758;2023-03-01T03:53:37;-0.90;99.90
28023;DHT22;67403;50.104;8.758;2023-03-01T03:56:05;-0.90;99.90
28023;DHT22;67403;50.104;8.758;2023-03-01T03:58:32;-1.00;99.90
28023;DHT22;67403;50.104;8.758;2023-03-01T04:00:59;-1.00;99.90
28023;DHT22;67403;50.104;8.758;2023-03-01T04:03:28;-1.10;99.90
28023;DHT22;67403;50.104;8.758;2023-03-01T04:05:57;-1.10;99.90
28023;DHT22;67403;50.104;8.758;2023-03-01T04:08:26;-1.20;99.90
28023;DHT22;67403;50.104;8.758;2023-03-01T04:10:57;-1.20;99.90
28023;DHT22;67403;50.104;8.758;2023-03-01T04:13:44;-1.20;99.90
28023;DHT22;67403;50.104;8.758;2023-03-01T04:16:31;-1.20;99.90
28023;DHT22;67403;50.104;8.758;2023-03-01T04:19:18;-1.20;99.90
28023;DHT22;67403;50.104;8.758;2023-03-01T04:21:59;-1.20;99.90
28023;DHT22;67403;50.104;8.758;2023-03-01T04:24:54;-1.20;99.90
28023;DHT22;67403;50.104;8.758;2023-03-01T04:27:21;-1.20;99.90
28023;DHT22;67403;50.104;8.758;2023-03-01T04:29:48;-1.30;99.90
28023;DHT22;67403;50.104;8.758;2023-03-01T04:32:14;-1.30;99.90
28023;DHT22;67403;50.104;8.758;2023-03-01T04:34:42;-1.30;99.90
28023;DHT22;67403;50.104;8.758;2023-03-01T04:37:09;-1.30;99.90
28023;DHT22;67403;50.104;8.758;2023-03-01T04:39:35;-1.30;99.90
28023;DHT22;67403;50.104;8.758;2023-03-01T04:42:12;-1.40;99.90
28023;DHT22;67403;50.104;8.758;2023-03-01T04:44:39;-1.40;99.90
28023;DHT22;67403;50.104;8.758;2023-03-01T04:47:06;-1.40;99.90
28023;DHT22;67403;50.104;8.758;2023-03-01T04:49:32;-1.40;99.90
28023;DHT22;67403;50.104;8.758;2023-03-01T04:51:59;-1.40;99.90
28023;DHT22;67403;50.104;8.758;2023-03-01T04:54:27;-1.40;99.90
28023;DHT22;67403;50.104;8.758;2023-03-01T04:56:55;-1.30;99.90
28023;DHT22;67403;50.104;8.758;2023-03-01T04:59:23;-1.30;99.90
28023;DHT22;67403;50.104;8.758;2023-03-01T05:01:50;-1.30;99.90
28023;DHT22;67403;50.104;8.758;2023-03-01T05:04:17;-1.30;99.90
28023;DHT22;67403;50.104;8.758;2023-03-01T05:06:44;-1.40;99.90
28023;DHT22;67403;50.104;8.758;2023-03-01T05:09:11;-1.40;99.90
28023;DHT22;67403;50.104;8.758;2023-03-01T05:11:38;-1.30;99.90
28023;DHT22;67403;50.104;8.758;2023-03-01T05:14:06;-1.30;99.90
28023;DHT22;67403;50.104;8.758;2023-03-01T05:16:35;-1.30;99.90
28023;DHT22;67403;50.104;8.758;2023-03-01T05:19:03;-1.30;99.90
28023;DHT22;67403;50.104;8.758;2023-03-01T05:21:37;-1.40;99.90
28023;DHT22;67403;50.104;8.758;2023-03-01T05:24:24;-1.30;99.90
28023;DHT22;67403;50.104;8.758;2023-03-01T05:26:51;-1.40;99.90
28023;DHT22;67403;50.104;8.758;2023-03-01T05:29:18;-1.40;99.90
28023;DHT22;67403;50.104;8.758;2023-03-01T05:31:52;-1.40;99.90
28023;DHT22;67403;50.104;8.758;2023-03-01T05:34:23;-1.40;99.90
28023;DHT22;67403;50.104;8.758;2023-03-01T05:36:51;-1.40;99.90
28023;DHT22;67403;50.104;8.758;2023-03-01T05:39:19;-1.30;99.90
28023;DHT22;67403;50.104;8.758;2023-03-01T05:41:47;-1.30;99.90
28023;DHT22;67403;50.104;8.758;2023-03-01T05:44:14;-1.30;99.90
28023;DHT22;67403;50.104;8.758;2023-03-01T05:46:41;-1.20;99.90
28023;DHT22;67403;50.104;8.758;2023-03-01T05:49:09;-1.30;99.90
28023;DHT22;67403;50.104;8.758;2023-03-01T05:51:36;-1.30;99.90
28023;DHT22;67403;50.104;8.758;2023-03-01T05:54:03;-1.30;99.90
28023;DHT22;67403;50.104;8.758;2023-03-01T05:56:32;-1.30;99.90
28023;DHT22;67403;50.104;8.758;2023-03-01T05:58:59;-1.30;99.90
28023;DHT22;67403;50.104;8.758;2023-03-01T06:01:26;-1.40;99.90
28023;DHT22;67403;50.104;8.758;2023-03-01T06:03:53;-1.40;99.90
28023;DHT22;67403;50.104;8.758;2023-03-01T06:06:22;-1.40;99.90
28023;DHT22;67403;50.104;8.758;2023-03-01T06:08:49;-1.40;99.90
28023;DHT22;67403;50.104;8.758;2023-03-01T06:11:16;-1.40;99.90
28023;DHT22;67403;50.104;8.758;2023-03-01T06:13:43;-1.40;99.90
28023;DHT22;67403;50.104;8.758;2023-03-01T06:16:11;-1.40;99.90
28023;DHT22;67403;50.104;8.758;2023-03-01T06:18:38;-1.40;99.90
28023;DHT22;67403;50.104;8.758;2023-03-01T06:21:06;-1.30;99.90
28023;DHT22;67403;50.104;8.758;2023-03-01T06:23:35;-1.40;99.90
28023;DHT22;67403;50.104;8.758;2023-03-01T06:26:05;-1.40;99.90
28023;DHT22;67403;50.104;8.758;2023-03-01T06:28:32;-1.40;99.90
28023;DHT22;67403;50.104;8.758;2023-03-01T06:30:59;-1.30;99.90
28023;DHT22;67403;50.104;8.758;2023-03-01T06:33:26;-1.30;99.90
28023;DHT22;67403;50.104;8.758;2023-03-01T06:35:54;-1.10;99.90
28023;DHT22;67403;50.104;8.758;2023-03-01T06:38:21;-1.10;99.90
28023;DHT22;67403;50.104;8.758;2023-03-01T06:40:54;-1.10;99.90
28023;DHT22;67403;50.104;8.758;2023-03-01T06:43:22;-1.10;99.90
28023;DHT22;67403;50.104;8.758;2023-03-01T06:45:49;-1.00;99.90
28023;DHT22;67403;50.104;8.758;2023-03-01T06:48:16;-0.90;99.90
28023;DHT22;67403;50.104;8.758;2023-03-01T06:50:43;-0.80;99.90
28023;DHT22;67403;50.104;8.758;2023-03-01T06:53:10;-0.70;99.90
28023;DHT22;67403;50.104;8.758;2023-03-01T06:55:37;-0.70;99.90
28023;DHT22;67403;50.104;8.758;2023-03-01T06:58:05;-0.60;99.90
28023;DHT22;67403;50.104;8.758;2023-03-01T07:00:32;-0.60;99.90
28023;DHT22;67403;50.104;8.758;2023-03-01T07:03:00;-0.50;99.90
28023;DHT22;67403;50.104;8.758;2023-03-01T07:05:28;-0.50;99.90
28023;DHT22;67403;50.104;8.758;2023-03-01T07:07:55;-0.40;99.90
28023;DHT22;67403;50.104;8.758;2023-03-01T07:10:22;-0.40;99.90
28023;DHT22;67403;50.104;8.758;2023-03-01T07:12:49;-0.40;99.90
28023;DHT22;67403;50.104;8.758;2023-03-01T07:15:17;-0.40;99.90
28023;DHT22;67403;50.104;8.758;2023-03-01T07:17:44;-0.30;99.90
28023;DHT22;67403;50.104;8.758;2023-03-01T07:20:13;-0.40;99.90
28023;DHT22;67403;50.104;8.758;2023-03-01T07:22:41;-0.40;99.90
28023;DHT22;67403;50.104;8.758;2023-03-01T07:25:09;-0.40;99.90
28023;DHT22;67403;50.104;8.758;2023-03-01T07:27:36;-0.40;99.90
28023;DHT22;67403;50.104;8.758;2023-03-01T07:30:04;-0.40;99.90
28023;DHT22;67403;50.104;8.758;2023-03-01T07:32:32;-0.50;99.90
28023;DHT22;67403;50.104;8.758;2023-03-01T07:34:59;-0.50;99.90
28023;DHT22;67403;50.104;8.758;2023-03-01T07:37:26;-0.40;99.90
28023;DHT22;67403;50.104;8.758;2023-03-01T07:39:53;-0.40;99.90
28023;DHT22;67403;50.104;8.758;2023-03-01T07:42:20;-0.40;99.90
28023;DHT22;67403;50.104;8.758;2023-03-01T07:44:47;-0.40;99.90
28023;DHT22;67403;50.104;8.758;2023-03-01T07:47:14;-0.40;99.90
28023;DHT22;67403;50.104;8.758;2023-03-01T07:49:42;-0.40;99.90
28023;DHT22;67403;50.104;8.758;2023-03-01T07:52:10;-0.30;99.90
28023;DHT22;67403;50.104;8.758;2023-03-01T07:54:37;-0.20;99.90
28023;DHT22;67403;50.104;8.758;2023-03-01T07:57:04;-0.10;99.90
28023;DHT22;67403;50.104;8.758;2023-03-01T07:59:31;0.00;99.90
28023;DHT22;67403;50.104;8.758;2023-03-01T08:01:59;0.10;99.90
28023;DHT22;67403;50.104;8.758;2023-03-01T08:04:26;0.20;99.90
28023;DHT22;67403;50.104;8.758;2023-03-01T08:06:55;0.30;99.90
28023;DHT22;67403;50.104;8.758;2023-03-01T08:09:22;0.30;99.90
28023;DHT22;67403;50.104;8.758;2023-03-01T08:11:49;0.40;99.90
28023;DHT22;67403;50.104;8.758;2023-03-01T08:14:16;0.40;99.90
28023;DHT22;67403;50.104;8.758;2023-03-01T08:16:43;0.60;99.90
28023;DHT22;67403;50.104;8.758;2023-03-01T08:19:11;0.50;99.90
28023;DHT22;67403;50.104;8.758;2023-03-01T08:21:39;0.60;99.90
28023;DHT22;67403;50.104;8.758;2023-03-01T08:24:08;0.60;99.90
28023;DHT22;67403;50.104;8.758;2023-03-01T08:26:36;0.70;99.90
28023;DHT22;67403;50.104;8.758;2023-03-01T08:29:03;0.90;99.90
28023;DHT22;67403;50.104;8.758;2023-03-01T08:31:32;1.00;99.90
28023;DHT22;67403;50.104;8.758;2023-03-01T08:34:04;1.00;99.90
28023;DHT22;67403;50.104;8.758;2023-03-01T08:36:33;1.10;99.90
28023;DHT22;67403;50.104;8.758;2023-03-01T08:39:01;1.20;99.90
28023;DHT22;67403;50.104;8.758;2023-03-01T08:41:29;1.30;99.90
28023;DHT22;67403;50.104;8.758;2023-03-01T08:43:57;1.50;99.90
28023;DHT22;67403;50.104;8.758;2023-03-01T08:46:25;1.60;99.90
28023;DHT22;67403;50.104;8.758;2023-03-01T08:48:52;1.60;99.90
28023;DHT22;67403;50.104;8.758;2023-03-01T08:51:20;1.50;99.90
28023;DHT22;67403;50.104;8.758;2023-03-01T08:53:48;1.60;99.90
28023;DHT22;67403;50.104;8.758;2023-03-01T08:56:15;1.70;99.90
28023;DHT22;67403;50.104;8.758;2023-03-01T08:58:45;1.70;99.90
28023;DHT22;67403;50.104;8.758;2023-03-01T09:01:14;1.70;99.90
28023;DHT22;67403;50.104;8.758;2023-03-01T09:03:41;1.70;99.90
28023;DHT22;67403;50.104;8.758;2023-03-01T09:06:09;1.80;99.90
28023;DHT22;67403;50.104;8.758;2023-03-01T09:08:37;1.80;99.90
28023;DHT22;67403;50.104;8.758;2023-03-01T09:11:06;2.10;99.90
28023;DHT22;67403;50.104;8.758;2023-03-01T09:13:34;2.20;99.90
28023;DHT22;67403;50.104;8.758;2023-03-01T09:16:04;2.40;99.90
28023;DHT22;67403;50.104;8.758;2023-03-01T09:18:31;2.50;99.90
28023;DHT22;67403;50.104;8.758;2023-03-01T09:21:03;2.40;99.90
28023;DHT22;67403;50.104;8.758;2023-03-01T09:23:33;2.40;99.90
28023;DHT22;67403;50.104;8.758;2023-03-01T09:26:00;2.50;99.90
28023;DHT22;67403;50.104;8.758;2023-03-01T09:28:26;2.40;99.90
28023;DHT22;67403;50.104;8.758;2023-03-01T09:30:53;2.30;99.90
28023;DHT22;67403;50.104;8.758;2023-03-01T09:33:21;2.60;99.90
28023;DHT22;67403;50.104;8.758;2023-03-01T09:35:48;2.70;99.90
28023;DHT22;67403;50.104;8.758;2023-03-01T09:38:15;2.50;99.90
28023;DHT22;67403;50.104;8.758;2023-03-01T09:40:43;2.50;99.90
28023;DHT22;67403;50.104;8.758;2023-03-01T09:43:20;2.60;99.90
28023;DHT22;67403;50.104;8.758;2023-03-01T09:45:49;2.80;99.90
28023;DHT22;67403;50.104;8.758;2023-03-01T09:48:20;2.90;99.90
28023;DHT22;67403;50.104;8.758;2023-03-01T09:50:51;3.10;99.90
28023;DHT22;67403;50.104;8.758;2023-03-01T09:53:19;3.20;99.90
28023;DHT22;67403;50.104;8.758;2023-03-01T09:55:51;3.30;99.90
28023;DHT22;67403;50.104;8.758;2023-03-01T09:58:31;3.40;99.90
28023;DHT22;67403;50.104;8.758;2023-03-01T10:01:10;3.60;99.90
28023;DHT22;67403;50.104;8.758;2023-03-01T10:03:55;3.40;99.90
28023;DHT22;67403;50.104;8.758;2023-03-01T10:06:28;3.50;99.90
28023;DHT22;67403;50.104;8.758;2023-03-01T10:08:57;3.70;99.90
28023;DHT22;67403;50.104;8.758;2023-03-01T10:11:28;4.00;99.90
28023;DHT22;67403;50.104;8.758;2023-03-01T10:14:01;4.80;99.90
28023;DHT22;67403;50.104;8.758;2023-03-01T10:16:40;5.40;99.90
28023;DHT22;67403;50.104;8.758;2023-03-01T10:19:12;5.50;99.90
28023;DHT22;67403;50.104;8.758;2023-03-01T10:21:45;6.00;99.90
28023;DHT22;67403;50.104;8.758;2023-03-01T10:24:14;5.90;99.90
28023;DHT22;67403;50.104;8.758;2023-03-01T10:26:48;6.20;99.90
28023;DHT22;67403;50.104;8.758;2023-03-01T10:29:23;6.80;99.90
28023;DHT22;67403;50.104;8.758;2023-03-01T10:31:53;7.30;99.90
28023;DHT22;67403;50.104;8.758;2023-03-01T10:34:26;7.30;99.90
28023;DHT22;67403;50.104;8.758;2023-03-01T10:36:56;7.60;99.90
28023;DHT22;67403;50.104;8.758;2023-03-01T10:39:25;7.70;99.90
28023;DHT22;67403;50.104;8.758;2023-03-01T10:41:58;7.30;99.90
28023;DHT22;67403;50.104;8.758;2023-03-01T10:44:41;7.40;99.90
28023;DHT22;67403;50.104;8.758;2023-03-01T10:47:17;7.40;99.90
28023;DHT22;67403;50.104;8.758;2023-03-01T10:49:54;8.50;99.90
28023;DHT22;67403;50.104;8.758;2023-03-01T10:52:25;9.60;99.90
28023;DHT22;67403;50.104;8.758;2023-03-01T10:54:54;9.40;99.90
28023;DHT22;67403;50.104;8.758;2023-03-01T10:57:30;8.70;99.90
28023;DHT22;67403;50.104;8.758;2023-03-01T11:00:13;8.90;99.90
28023;DHT22;67403;50.104;8.758;2023-03-01T11:02:42;8.30;99.90
28023;DHT22;67403;50.104;8.758;2023-03-01T11:05:19;8.60;99.90
28023;DHT22;67403;50.104;8.758;2023-03-01T11:07:52;9.20;98.90
28023;DHT22;67403;50.104;8.758;2023-03-01T11:10:23;9.20;98.50
28023;DHT22;67403;50.104;8.758;2023-03-01T11:12:51;9.30;97.30
28023;DHT22;67403;50.104;8.758;2023-03-01T11:15:25;10.00;95.70
28023;DHT22;67403;50.104;8.758;2023-03-01T11:17:53;9.50;95.10
28023;DHT22;67403;50.104;8.758;2023-03-01T11:20:25;9.00;96.20
28023;DHT22;67403;50.104;8.758;2023-03-01T11:22:56;10.20;94.70
28023;DHT22;67403;50.104;8.758;2023-03-01T11:25:26;10.10;94.00
28023;DHT22;67403;50.104;8.758;2023-03-01T11:27:55;10.10;92.20
28023;DHT22;67403;50.104;8.758;2023-03-01T11:30:25;11.10;91.00
28023;DHT22;67403;50.104;8.758;2023-03-01T11:33:05;10.50;90.30
28023;DHT22;67403;50.104;8.758;2023-03-01T11:35:36;10.60;89.00
28023;DHT22;67403;50.104;8.758;2023-03-01T11:38:15;12.50;86.50
28023;DHT22;67403;50.104;8.758;2023-03-01T11:40:46;13.50;78.50
28023;DHT22;67403;50.104;8.758;2023-03-01T11:43:19;13.90;73.20
28023;DHT22;67403;50.104;8.758;2023-03-01T11:46:06;12.20;71.30
28023;DHT22;67403;50.104;8.758;2023-03-01T11:48:47;12.10;73.50
28023;DHT22;67403;50.104;8.758;2023-03-01T11:51:23;12.70;69.10
28023;DHT22;67403;50.104;8.758;2023-03-01T11:54:02;13.30;67.50
28023;DHT22;67403;50.104;8.758;2023-03-01T11:56:34;11.40;68.30
28023;DHT22;67403;50.104;8.758;2023-03-01T12:05:25;14.00;62.80
28023;DHT22;67403;50.104;8.758;2023-03-01T12:08:03;15.20;60.50
28023;DHT22;67403;50.104;8.758;2023-03-01T12:10:39;13.90;59.30
28023;DHT22;67403;50.104;8.758;2023-03-01T12:13:34;12.10;64.90
28023;DHT22;67403;50.104;8.758;2023-03-01T12:16:26;11.80;65.60
28023;DHT22;67403;50.104;8.758;2023-03-01T12:19:06;11.60;66.80
28023;DHT22;67403;50.104;8.758;2023-03-01T12:21:46;12.40;63.20
28023;DHT22;67403;50.104;8.758;2023-03-01T12:24:37;13.60;60.80
28023;DHT22;67403;50.104;8.758;2023-03-01T12:27:23;13.60;58.50
28023;DHT22;67403;50.104;8.758;2023-03-01T12:29:55;12.20;61.30
28023;DHT22;67403;50.104;8.758;2023-03-01T12:32:38;11.30;64.30
28023;DHT22;67403;50.104;8.758;2023-03-01T12:35:28;12.40;64.10
28023;DHT22;67403;50.104;8.758;2023-03-01T12:38:13;15.30;57.90
28023;DHT22;67403;50.104;8.758;2023-03-01T12:40:53;15.40;55.50
28023;DHT22;67403;50.104;8.758;2023-03-01T12:43:39;13.50;57.90
28023;DHT22;67403;50.104;8.758;2023-03-01T12:46:19;12.20;60.60
28023;DHT22;67403;50.104;8.758;2023-03-01T12:48:53;12.90;59.50
28023;DHT22;67403;50.104;8.758;2023-03-01T12:51:29;13.40;58.00
28023;DHT22;67403;50.104;8.758;2023-03-01T12:53:59;13.20;59.30
28023;DHT22;67403;50.104;8.758;2023-03-01T12:56:30;13.20;59.60
28023;DHT22;67403;50.104;8.758;2023-03-01T12:59:04;13.00;60.00
28023;DHT22;67403;50.104;8.758;2023-03-01T13:01:41;14.10;58.60
28023;DHT22;67403;50.104;8.758;2023-03-01T13:04:29;13.50;57.50
28023;DHT22;67403;50.104;8.758;2023-03-01T13:07:14;13.10;58.60
28023;DHT22;67403;50.104;8.758;2023-03-01T13:09:49;15.00;56.10
28023;DHT22;67403;50.104;8.758;2023-03-01T13:12:50;14.40;55.20
28023;DHT22;67403;50.104;8.758;2023-03-01T13:15:31;13.30;56.00
28023;DHT22;67403;50.104;8.758;2023-03-01T13:18:00;12.80;55.50
28023;DHT22;67403;50.104;8.758;2023-03-01T13:20:31;12.40;57.40
28023;DHT22;67403;50.104;8.758;2023-03-01T13:23:06;12.60;57.50
28023;DHT22;67403;50.104;8.758;2023-03-01T13:25:34;12.90;56.80
28023;DHT22;67403;50.104;8.758;2023-03-01T13:28:35;12.20;57.50
28023;DHT22;67403;50.104;8.758;2023-03-01T13:31:05;13.00;57.90
28023;DHT22;67403;50.104;8.758;2023-03-01T13:33:43;12.70;57.60
28023;DHT22;67403;50.104;8.758;2023-03-01T13:36:39;11.60;59.10
28023;DHT22;67403;50.104;8.758;2023-03-01T13:39:02;12.90;58.50
28023;DHT22;67403;50.104;8.758;2023-03-01T13:41:51;13.10;55.80
28023;DHT22;67403;50.104;8.758;2023-03-01T13:44:26;12.10;57.40
28023;DHT22;67403;50.104;8.758;2023-03-01T13:46:59;13.10;57.40
28023;DHT22;67403;50.104;8.758;2023-03-01T13:49:36;14.50;55.10
28023;DHT22;67403;50.104;8.758;2023-03-01T13:52:32;14.50;55.80
28023;DHT22;67403;50.104;8.758;2023-03-01T13:55:03;14.30;55.50
28023;DHT22;67403;50.104;8.758;2023-03-01T13:57:33;13.70;55.50
28023;DHT22;67403;50.104;8.758;2023-03-01T14:00:01;12.40;56.00
28023;DHT22;67403;50.104;8.758;2023-03-01T14:02:29;11.90;57.40
28023;DHT22;67403;50.104;8.758;2023-03-01T14:04:57;12.70;56.80
28023;DHT22;67403;50.104;8.758;2023-03-01T14:07:25;14.30;55.70
28023;DHT22;67403;50.104;8.758;2023-03-01T14:09:57;12.30;56.30
28023;DHT22;67403;50.104;8.758;2023-03-01T14:12:39;12.20;56.40
28023;DHT22;67403;50.104;8.758;2023-03-01T14:15:17;13.00;55.90
28023;DHT22;67403;50.104;8.758;2023-03-01T14:18:03;13.00;55.70
28023;DHT22;67403;50.104;8.758;2023-03-01T14:20:32;12.70;55.00
28023;DHT22;67403;50.104;8.758;2023-03-01T14:23:11;13.60;54.60
28023;DHT22;67403;50.104;8.758;2023-03-01T14:25:46;13.60;54.60
28023;DHT22;67403;50.104;8.758;2023-03-01T14:28:16;12.50;55.50
28023;DHT22;67403;50.104;8.758;2023-03-01T14:30:46;12.60;56.50
28023;DHT22;67403;50.104;8.758;2023-03-01T14:33:22;12.80;56.90
28023;DHT22;67403;50.104;8.758;2023-03-01T14:35:55;12.90;56.20
28023;DHT22;67403;50.104;8.758;2023-03-01T14:38:23;13.20;55.50
28023;DHT22;67403;50.104;8.758;2023-03-01T14:40:57;12.80;56.20
28023;DHT22;67403;50.104;8.758;2023-03-01T14:43:25;13.00;57.50
28023;DHT22;67403;50.104;8.758;2023-03-01T14:45:52;13.60;56.00
28023;DHT22;67403;50.104;8.758;2023-03-01T14:48:21;13.10;56.40
28023;DHT22;67403;50.104;8.758;2023-03-01T14:50:48;11.80;57.80
28023;DHT22;67403;50.104;8.758;2023-03-01T14:53:18;11.60;58.90
28023;DHT22;67403;50.104;8.758;2023-03-01T14:55:47;13.10;57.50
28023;DHT22;67403;50.104;8.758;2023-03-01T14:58:19;13.00;57.50
28023;DHT22;67403;50.104;8.758;2023-03-01T15:00:49;13.90;54.90
28023;DHT22;67403;50.104;8.758;2023-03-01T15:03:23;12.10;57.10
28023;DHT22;67403;50.104;8.758;2023-03-01T15:05:50;12.00;57.50
28023;DHT22;67403;50.104;8.758;2023-03-01T15:08:20;11.00;59.20
28023;DHT22;67403;50.104;8.758;2023-03-01T15:10:59;10.40;62.00
28023;DHT22;67403;50.104;8.758;2023-03-01T15:13:30;9.60;64.50
28023;DHT22;67403;50.104;8.758;2023-03-01T15:16:04;8.90;66.70
28023;DHT22;67403;50.104;8.758;2023-03-01T15:18:34;8.70;69.70
28023;DHT22;67403;50.104;8.758;2023-03-01T15:21:09;8.80;70.70
28023;DHT22;67403;50.104;8.758;2023-03-01T15:23:40;8.90;71.20
28023;DHT22;67403;50.104;8.758;2023-03-01T15:26:22;8.50;74.20
28023;DHT22;67403;50.104;8.758;2023-03-01T15:28:52;8.30;76.00
28023;DHT22;67403;50.104;8.758;2023-03-01T15:31:21;8.10;77.60
28023;DHT22;67403;50.104;8.758;2023-03-01T15:33:50;8.10;77.80
28023;DHT22;67403;50.104;8.758;2023-03-01T15:36:33;8.20;78.30
28023;DHT22;67403;50.104;8.758;2023-03-01T15:39:00;8.10;78.70
28023;DHT22;67403;50.104;8.758;2023-03-01T15:41:29;8.00;78.40
28023;DHT22;67403;50.104;8.758;2023-03-01T15:43:58;7.90;79.40
28023;DHT22;67403;50.104;8.758;2023-03-01T15:46:28;7.80;80.00
28023;DHT22;67403;50.104;8.758;2023-03-01T15:49:01;7.80;80.90
28023;DHT22;67403;50.104;8.758;2023-03-01T15:51:31;7.80;81.10
28023;DHT22;67403;50.104;8.758;2023-03-01T15:53:59;7.80;81.30
28023;DHT22;67403;50.104;8.758;2023-03-01T15:56:26;7.60;81.20
28023;DHT22;67403;50.104;8.758;2023-03-01T15:58:58;7.50;81.70
28023;DHT22;67403;50.104;8.758;2023-03-01T16:01:26;7.40;82.00
28023;DHT22;67403;50.104;8.758;2023-03-01T16:03:53;7.40;82.80
28023;DHT22;67403;50.104;8.758;2023-03-01T16:06:21;7.40;82.50